Spencer, Massachusetts
Current Conditions -  °F | °C
As of 7:54 PM on Friday 24 Oct 2014 (Local Time) from KORH Reporting Station
Overcast Overcast  
Wind Chill: 41°   Ceiling: 1900
Heat Index: 46°   Visibility: 10mi
Dew Point: 40°   Wind: 10mph
Humidity: 79%   Direction: 310°NW
Pressure: 29.74"   Gusts: NA
Location:  42.24°N, 71.99°W
Report Text: KORH 242354Z 31009KT 10SM OVC019 08/04 A2974 RMK AO2 SLP077 T00780044 10100 20078 51009
Loading
Personal Weather Stations






























Interactive Weather Map
Tropical Storm Tracking
New forecast layout! Learn more

10-Day Weather Forecast

Advertisements
Track Severe Weather on mobile